Time;durP1;ratioP1;P1;durP2;ratioP2;P2;SDS_P1;SDS_P2;PMS_P1;PMS_P2;Temp;Humidity;BMP_temperature;BMP_pressure;BME280_temperature;BME280_humidity;BME280_pressure;Samples;Min_cycle;Max_cycle;Signal;HPM_P1;HPM_P2
2022/06/16 00:01:15;;;;;;;4.70;4.30;;;;;;;23.60;44.60;95487.00;6163204;28;104407;-52
2022/06/16 00:04:18;;;;;;;4.63;4.27;;;;;;;23.59;44.34;95490.78;6134503;28;104047;-52
2022/06/16 00:07:23;;;;;;;4.60;4.27;;;;;;;23.60;44.56;95481.66;6136398;28;104145;-52
2022/06/16 00:10:28;;;;;;;4.80;4.40;;;;;;;23.57;44.88;95482.28;6134041;28;102966;-52
2022/06/16 00:13:32;;;;;;;4.73;4.43;;;;;;;23.62;44.32;95484.03;6152070;28;103161;-52
2022/06/16 00:16:35;;;;;;;4.77;4.47;;;;;;;23.58;44.63;95487.31;6136190;28;104019;-52
2022/06/16 00:19:38;;;;;;;4.30;4.00;;;;;;;23.58;44.60;95484.66;6139671;28;103090;-52
2022/06/16 00:22:41;;;;;;;5.40;4.50;;;;;;;23.56;44.39;95480.69;6154007;28;103054;-52
2022/06/16 00:25:46;;;;;;;4.40;4.10;;;;;;;23.60;44.43;95479.00;6134994;28;103139;-51
2022/06/16 00:28:50;;;;;;;5.07;4.60;;;;;;;23.55;44.47;95487.13;6148293;28;104105;-52
2022/06/16 00:31:53;;;;;;;4.57;4.27;;;;;;;23.53;44.74;95481.31;6159306;28;103006;-52
2022/06/16 00:34:57;;;;;;;8.17;4.87;;;;;;;23.52;44.49;95490.41;6158958;28;104019;-52
2022/06/16 00:38:00;;;;;;;4.60;4.30;;;;;;;23.52;44.72;95485.88;6149030;28;104290;-52
2022/06/16 00:41:05;;;;;;;5.47;4.80;;;;;;;23.52;44.55;95493.06;6140956;28;104201;-51
2022/06/16 00:44:17;;;;;;;5.53;4.93;;;;;;;23.53;44.66;95492.00;6136006;28;103235;-51
2022/06/16 00:47:22;;;;;;;4.67;4.27;;;;;;;23.50;44.76;95488.03;6145403;28;104571;-51
2022/06/16 00:50:25;;;;;;;4.93;4.53;;;;;;;23.52;44.41;95485.06;6125504;28;103108;-52
2022/06/16 00:53:30;;;;;;;4.47;4.10;;;;;;;23.49;44.49;95475.75;6146812;28;103591;-51
2022/06/16 00:56:35;;;;;;;4.63;4.23;;;;;;;23.52;44.57;95479.72;6146473;28;104026;-52
2022/06/16 00:59:38;;;;;;;4.77;4.17;;;;;;;23.47;44.36;95483.28;6149472;28;103663;-52
2022/06/16 01:02:42;;;;;;;4.50;4.20;;;;;;;23.47;44.48;95475.28;6125545;28;104534;-51
2022/06/16 01:05:44;;;;;;;4.50;4.20;;;;;;;23.45;44.41;95477.47;6147374;28;103609;-51
2022/06/16 01:08:50;;;;;;;4.53;4.23;;;;;;;23.47;44.36;95482.50;6158477;28;102965;-52
2022/06/16 01:15:38;;;;;;;5.00;4.70;;;;;;;23.44;44.19;95478.56;6146412;28;103307;-51
2022/06/16 01:18:50;;;;;;;4.97;4.57;;;;;;;23.41;44.48;95467.72;6145761;28;103084;-52
2022/06/16 01:21:59;;;;;;;4.90;4.40;;;;;;;23.40;44.30;95461.56;6144815;28;103354;-52
2022/06/16 01:25:13;;;;;;;4.40;4.10;;;;;;;23.42;44.09;95469.28;6143721;28;103538;-52
2022/06/16 01:28:27;;;;;;;4.50;4.20;;;;;;;23.37;44.08;95466.75;6138789;28;103073;-52
2022/06/16 01:31:40;;;;;;;4.27;3.97;;;;;;;23.39;44.25;95476.03;6151760;28;103684;-52
2022/06/16 01:34:51;;;;;;;4.67;4.30;;;;;;;23.37;44.08;95472.88;6137690;28;103898;-52
2022/06/16 01:38:06;;;;;;;5.70;4.40;;;;;;;23.35;44.10;95466.22;6139216;28;104142;-52
2022/06/16 01:41:16;;;;;;;4.57;4.17;;;;;;;23.38;44.60;95462.97;6147107;28;104083;-53
2022/06/16 01:44:24;;;;;;;5.60;5.10;;;;;;;23.39;44.62;95456.53;6149374;28;103131;-50
2022/06/16 01:47:32;;;;;;;4.60;4.20;;;;;;;23.32;44.05;95461.50;6124766;28;103355;-48
2022/06/16 01:50:40;;;;;;;5.20;4.70;;;;;;;23.29;44.83;95455.69;6155181;28;103157;-48
2022/06/16 01:53:48;;;;;;;4.90;4.40;;;;;;;23.31;44.22;95452.69;6144900;28;103295;-49
2022/06/16 01:56:56;;;;;;;9.30;8.63;;;;;;;23.30;44.67;95451.91;6155326;28;104652;-48
2022/06/16 02:00:07;;;;;;;12.00;11.00;;;;;;;23.29;44.13;95447.66;6132400;28;103110;-49
2022/06/16 02:03:19;;;;;;;8.07;7.50;;;;;;;23.29;44.02;95442.31;6161416;28;103002;-48
2022/06/16 02:06:26;;;;;;;10.90;10.00;;;;;;;23.33;44.45;95444.38;6163140;28;103370;-48
2022/06/16 02:09:35;;;;;;;9.53;8.70;;;;;;;23.30;44.26;95443.91;6150721;28;103962;-48
2022/06/16 02:12:56;;;;;;;6.57;6.07;;;;;;;23.29;44.50;95450.34;6148614;28;103904;-48
2022/06/16 02:16:02;;;;;;;7.97;7.33;;;;;;;23.28;44.46;95451.41;6139688;28;104154;-48
2022/06/16 02:19:11;;;;;;;6.90;6.37;;;;;;;23.26;44.63;95450.91;6142627;28;103014;-48
2022/06/16 02:22:14;;;;;;;7.03;6.43;;;;;;;23.25;44.32;95454.69;6146959;28;103122;-48
2022/06/16 02:25:17;;;;;;;9.03;6.53;;;;;;;23.35;44.80;95455.53;6145582;28;103647;-49
2022/06/16 02:28:21;;;;;;;7.77;6.13;;;;;;;23.26;44.31;95461.59;6161941;28;104357;-49
2022/06/16 02:31:40;;;;;;;6.77;6.17;;;;;;;23.25;44.71;95462.69;6145483;28;104307;-49
2022/06/16 02:34:58;;;;;;;6.50;5.90;;;;;;;23.26;44.56;95461.59;6145755;28;103426;-48
2022/06/16 02:38:10;;;;;;;6.33;5.83;;;;;;;23.26;44.64;95460.81;6153764;28;104247;-49
2022/06/16 02:41:26;;;;;;;6.93;6.43;;;;;;;23.21;44.79;95472.41;6137764;28;104206;-48
2022/06/16 02:44:37;;;;;;;6.10;5.70;;;;;;;23.18;45.23;95467.66;6129898;28;104146;-49
2022/06/16 02:47:57;;;;;;;6.73;6.23;;;;;;;23.22;45.19;95473.19;6152197;28;103197;-48
2022/06/16 02:51:08;;;;;;;6.93;6.37;;;;;;;23.18;45.20;95467.66;6150894;28;102875;-48
2022/06/16 02:54:21;;;;;;;6.53;6.13;;;;;;;23.16;45.16;95479.72;6148593;28;104620;-48
2022/06/16 02:57:32;;;;;;;7.67;6.97;;;;;;;23.19;45.35;95484.47;6157408;28;103056;-48
2022/06/16 03:00:39;;;;;;;7.33;6.73;;;;;;;23.20;44.82;95483.38;6159489;28;104520;-49
2022/06/16 03:03:42;;;;;;;7.70;7.10;;;;;;;23.18;45.06;95491.69;6150480;28;103601;-49
2022/06/16 03:06:47;;;;;;;6.10;5.60;;;;;;;23.19;45.34;95487.94;6136106;28;103060;-50
2022/06/16 03:09:51;;;;;;;6.57;5.97;;;;;;;23.17;44.89;95489.31;6149336;28;104210;-48
2022/06/16 03:12:54;;;;;;;6.30;5.80;;;;;;;23.18;45.55;95488.22;6159721;28;103204;-48
2022/06/16 03:15:59;;;;;;;6.00;5.60;;;;;;;23.16;45.65;95482.38;6158418;28;103236;-49
2022/06/16 03:19:02;;;;;;;7.67;6.67;;;;;;;23.16;45.73;95485.06;6133925;28;103083;-48
2022/06/16 03:22:07;;;;;;;7.40;6.80;;;;;;;23.15;45.47;95480.81;6138535;28;103050;-48
2022/06/16 03:25:12;;;;;;;6.20;5.70;;;;;;;23.15;45.80;95480.81;6149973;28;103443;-49
2022/06/16 03:28:16;;;;;;;7.40;6.43;;;;;;;23.14;45.66;95476.56;6143562;28;103163;-50
2022/06/16 03:31:19;;;;;;;7.27;6.53;;;;;;;23.15;46.11;95478.94;6161539;28;103937;-49
2022/06/16 03:34:23;;;;;;;7.10;6.53;;;;;;;23.14;45.81;95481.91;6156823;28;102891;-48
2022/06/16 03:37:28;;;;;;;6.53;6.10;;;;;;;23.15;45.62;95484.28;6147852;28;103304;-49
2022/06/16 03:40:31;;;;;;;7.00;6.40;;;;;;;23.16;45.87;95472.50;6131577;28;103141;-49
2022/06/16 03:43:34;;;;;;;7.70;7.10;;;;;;;23.15;46.15;95478.16;6159789;28;103369;-49
2022/06/16 03:46:37;;;;;;;7.97;7.17;;;;;;;23.15;46.33;95475.47;6159086;28;103831;-50
2022/06/16 03:49:40;;;;;;;7.80;7.10;;;;;;;23.16;45.94;95477.84;6156274;28;104444;-48
2022/06/16 03:52:45;;;;;;;7.33;6.73;;;;;;;23.16;46.23;95477.84;6139010;28;104165;-49
2022/06/16 03:55:48;;;;;;;9.13;6.90;;;;;;;23.17;46.05;95475.97;6157387;28;103289;-48
2022/06/16 03:58:52;;;;;;;7.47;6.97;;;;;;;23.17;46.39;95482.09;6157725;28;103392;-49
2022/06/16 04:01:55;;;;;;;7.37;6.67;;;;;;;23.19;46.68;95481.81;6143651;28;105074;-48
2022/06/16 04:05:01;;;;;;;7.20;6.60;;;;;;;23.21;46.43;95480.41;6153553;28;103804;-50
2022/06/16 04:08:07;;;;;;;8.40;7.60;;;;;;;23.23;46.58;95483.56;6138124;28;103339;-50
2022/06/16 04:14:28;;;;;;;7.27;6.53;;;;;;;23.28;46.66;95479.97;6145063;28;102953;-49
2022/06/16 04:17:31;;;;;;;7.60;6.90;;;;;;;23.30;46.04;95481.28;6149885;28;103323;-53
2022/06/16 04:20:35;;;;;;;7.67;7.07;;;;;;;23.38;46.48;95479.78;6151646;28;103078;-48
2022/06/16 04:23:40;;;;;;;8.57;7.67;;;;;;;23.33;46.37;95482.56;6135051;28;103079;-48
2022/06/16 04:26:45;;;;;;;8.67;7.90;;;;;;;23.33;46.56;95487.09;6140229;28;104389;-48
2022/06/16 04:29:48;;;;;;;8.30;7.50;;;;;;;23.38;46.36;95487.00;6148308;28;103230;-51
2022/06/16 04:32:51;;;;;;;8.53;7.73;;;;;;;23.50;46.02;95481.91;6158165;28;104037;-51
2022/06/16 04:35:55;;;;;;;7.93;7.27;;;;;;;23.56;46.09;95480.69;6145895;28;103044;-51
2022/06/16 04:39:00;;;;;;;8.27;7.50;;;;;;;23.62;46.59;95479.47;6142628;28;103628;-51
2022/06/16 04:42:04;;;;;;;9.53;8.73;;;;;;;23.62;46.55;95479.47;6144122;28;104029;-51
2022/06/16 04:45:10;;;;;;;11.70;8.80;;;;;;;23.68;47.20;95480.91;6147860;28;103286;-51
2022/06/16 04:48:13;;;;;;;9.67;8.77;;;;;;;23.74;48.02;95479.72;6139552;28;103226;-54
2022/06/16 04:51:17;;;;;;;9.00;8.23;;;;;;;23.77;48.32;95484.44;6146782;28;103012;-54
2022/06/16 04:54:21;;;;;;;8.60;7.90;;;;;;;23.77;48.30;95481.00;6145736;28;103538;-54
2022/06/16 04:57:25;;;;;;;9.10;8.20;;;;;;;23.80;48.28;95475.81;6136373;28;104309;-53
2022/06/16 05:00:28;;;;;;;12.83;8.10;;;;;;;23.84;48.05;95484.78;6129535;28;103206;-53
2022/06/16 05:03:31;;;;;;;9.60;7.97;;;;;;;23.87;48.32;95486.09;6152079;28;103197;-54
2022/06/16 05:06:34;;;;;;;10.40;8.77;;;;;;;23.89;49.25;95484.69;6130708;28;104028;-53
2022/06/16 05:09:39;;;;;;;10.20;8.30;;;;;;;23.90;49.06;95483.59;6138680;28;103827;-54
2022/06/16 05:12:42;;;;;;;9.67;8.57;;;;;;;23.94;49.11;95486.44;6142384;28;104245;-53
2022/06/16 05:15:45;;;;;;;9.60;8.67;;;;;;;23.95;48.76;95481.88;6144744;28;104078;-54
2022/06/16 05:18:48;;;;;;;11.43;8.30;;;;;;;23.95;48.16;95481.88;6145956;28;103280;-53
2022/06/16 05:21:52;;;;;;;10.70;7.57;;;;;;;23.97;48.61;95479.69;6142664;28;104228;-52
2022/06/16 05:24:56;;;;;;;8.83;7.83;;;;;;;23.98;49.06;95484.72;6144204;28;103346;-53
2022/06/16 05:27:59;;;;;;;9.03;8.00;;;;;;;23.92;48.16;95487.84;6151549;28;103440;-53
2022/06/16 05:31:03;;;;;;;8.70;7.80;;;;;;;23.96;48.95;95486.13;6149802;28;103191;-54
2022/06/16 05:34:06;;;;;;;8.30;7.47;;;;;;;24.02;48.94;95490.25;6127263;28;103354;-55
2022/06/16 05:37:09;;;;;;;9.07;8.00;;;;;;;24.06;50.03;95488.56;6132686;28;104332;-55
2022/06/16 05:40:14;;;;;;;10.33;9.27;;;;;;;24.10;51.30;95498.34;6141351;28;103927;-53
2022/06/16 05:43:17;;;;;;;9.17;8.27;;;;;;;24.14;50.85;95485.94;6140573;28;103419;-53
2022/06/16 05:46:22;;;;;;;8.83;8.13;;;;;;;24.17;51.19;95492.53;6140208;28;104373;-53
2022/06/16 05:49:25;;;;;;;8.83;8.03;;;;;;;24.20;50.41;95494.63;6143767;28;104491;-53
2022/06/16 05:52:28;;;;;;;8.87;8.00;;;;;;;24.26;50.62;95493.38;6156724;28;104171;-54
2022/06/16 05:55:32;;;;;;;9.80;8.97;;;;;;;24.27;51.20;95499.50;6147253;28;104339;-54
2022/06/16 05:58:36;;;;;;;9.73;8.83;;;;;;;24.34;50.94;95499.84;6139759;28;103238;-54
2022/06/16 06:01:40;;;;;;;10.07;9.17;;;;;;;24.37;50.67;95500.03;6150170;28;104160;-54
2022/06/16 06:04:43;;;;;;;9.87;8.60;;;;;;;24.42;50.94;95499.09;6158982;28;103229;-53
2022/06/16 06:17:55;;;;;;;12.00;11.00;;;;;;;24.56;50.48;95489.09;6140890;28;103223;-55
2022/06/16 06:20:58;;;;;;;10.90;10.10;;;;;;;24.60;50.59;95487.34;6148297;28;104304;-53
2022/06/16 06:24:01;;;;;;;11.47;10.57;;;;;;;24.62;50.68;95490.50;6136434;28;103248;-54
2022/06/16 06:27:14;;;;;;;11.93;11.07;;;;;;;24.64;50.70;95496.34;6146239;28;104406;-55
2022/06/16 06:30:20;;;;;;;12.57;11.57;;;;;;;24.64;50.42;95498.22;6131254;28;103794;-54
2022/06/16 06:33:23;;;;;;;13.37;12.17;;;;;;;24.64;50.04;95490.97;6145832;28;104234;-55
2022/06/16 06:36:26;;;;;;;15.13;13.80;;;;;;;24.64;50.27;95488.31;6148974;28;102988;-59
2022/06/16 06:39:30;;;;;;;15.40;13.80;;;;;;;24.70;50.03;95497.03;6161142;28;104361;-54
2022/06/16 06:42:34;;;;;;;13.67;12.37;;;;;;;24.73;49.88;95491.06;6134723;28;103111;-53
2022/06/16 06:45:38;;;;;;;14.50;13.40;;;;;;;24.74;49.84;95496.09;6150118;28;103435;-54
2022/06/16 06:48:42;;;;;;;15.83;14.37;;;;;;;24.74;50.08;95495.31;6152725;28;104434;-54
2022/06/16 06:51:45;;;;;;;15.40;13.83;;;;;;;24.69;50.05;95495.44;6149113;28;103849;-53
2022/06/16 06:54:49;;;;;;;15.83;14.33;;;;;;;24.73;49.83;95496.41;6131622;28;104770;-54
2022/06/16 06:57:55;;;;;;;16.40;14.77;;;;;;;24.77;49.95;95489.31;6140896;28;104370;-53
2022/06/16 07:01:00;;;;;;;15.60;14.30;;;;;;;24.79;49.59;95489.78;6145123;28;103361;-53
2022/06/16 07:04:03;;;;;;;17.53;15.70;;;;;;;24.83;49.43;95489.97;6147783;28;104318;-53
2022/06/16 07:07:07;;;;;;;17.43;15.83;;;;;;;24.82;49.78;95496.41;6140740;28;104006;-53
2022/06/16 07:10:11;;;;;;;17.97;16.47;;;;;;;24.86;49.53;95487.44;6132574;28;104050;-53
2022/06/16 07:13:16;;;;;;;16.20;14.80;;;;;;;24.91;49.29;95481.94;6149191;28;104336;-54
2022/06/16 07:16:20;;;;;;;16.90;15.50;;;;;;;24.94;49.36;95477.84;6133556;28;103061;-55
2022/06/16 07:19:23;;;;;;;17.00;15.60;;;;;;;24.89;49.38;95480.69;6142943;28;104526;-53
2022/06/16 07:22:26;;;;;;;16.23;14.83;;;;;;;24.91;49.82;95483.84;6137018;28;103100;-54
2022/06/16 07:25:29;;;;;;;18.97;17.10;;;;;;;24.71;49.04;95482.56;6136814;28;102687;-53
2022/06/16 07:28:33;;;;;;;16.60;15.20;;;;;;;24.72;49.48;95476.09;6126974;28;104316;-53
2022/06/16 07:31:37;;;;;;;17.97;16.37;;;;;;;24.67;48.90;95473.50;6137738;28;104461;-54
2022/06/16 07:34:40;;;;;;;18.53;17.03;;;;;;;24.81;48.97;95470.75;6137444;28;103015;-53
2022/06/16 07:37:43;;;;;;;18.90;17.10;;;;;;;24.90;48.68;95477.69;6132396;28;104118;-53
2022/06/16 07:40:46;;;;;;;19.33;17.30;;;;;;;24.97;48.33;95471.88;6130933;28;104640;-54
2022/06/16 07:43:51;;;;;;;19.03;17.13;;;;;;;25.01;48.28;95468.25;6138780;28;103220;-52
2022/06/16 07:46:54;;;;;;;18.30;16.50;;;;;;;25.05;48.51;95466.53;6161091;28;103149;-53
2022/06/16 07:49:58;;;;;;;19.73;17.53;;;;;;;25.06;48.24;95470.78;6150757;28;103238;-54
2022/06/16 07:53:01;;;;;;;19.10;17.30;;;;;;;25.08;47.83;95465.91;6158781;28;104241;-54
2022/06/16 07:56:05;;;;;;;19.40;17.53;;;;;;;25.13;47.90;95466.84;6156678;28;103703;-53
2022/06/16 07:59:09;;;;;;;19.70;17.90;;;;;;;25.13;47.95;95470.31;6160498;28;103276;-54
2022/06/16 08:02:12;;;;;;;19.83;17.93;;;;;;;24.97;47.40;95467.31;6151963;28;103635;-54
2022/06/16 08:05:16;;;;;;;19.17;17.57;;;;;;;24.98;47.20;95466.19;6160692;28;103410;-54
2022/06/16 08:08:22;;;;;;;17.63;16.13;;;;;;;25.11;46.95;95471.72;6160476;28;103163;-51
2022/06/16 08:14:48;;;;;;;18.80;17.10;;;;;;;25.18;47.11;95480.84;6154296;28;105101;-51
2022/06/16 08:17:56;;;;;;;18.87;17.17;;;;;;;25.20;47.25;95472.50;6160423;28;103000;-52
2022/06/16 08:20:59;;;;;;;19.20;17.60;;;;;;;25.17;47.68;95473.13;6160461;28;104092;-54
2022/06/16 08:24:02;;;;;;;20.03;18.23;;;;;;;25.14;48.75;95471.09;6151454;28;103976;-52
2022/06/16 08:27:07;;;;;;;20.60;18.70;;;;;;;25.15;48.38;95476.13;6159494;28;103273;-54
2022/06/16 08:30:15;;;;;;;20.37;18.37;;;;;;;25.22;48.30;95481.03;6160360;28;103059;-52
2022/06/16 08:33:19;;;;;;;20.63;18.83;;;;;;;25.24;49.02;95490.34;6160484;28;103175;-53
2022/06/16 08:36:22;;;;;;;20.63;18.63;;;;;;;25.24;48.62;95474.25;6149071;28;104130;-52
2022/06/16 08:39:25;;;;;;;19.57;17.87;;;;;;;25.24;48.69;95478.84;6159741;28;104412;-52
2022/06/16 08:42:39;;;;;;;20.00;18.30;;;;;;;25.25;48.72;95475.84;6160092;28;103268;-52
2022/06/16 08:45:50;;;;;;;19.70;18.00;;;;;;;25.27;48.94;95473.63;6159058;28;103392;-53
2022/06/16 08:49:02;;;;;;;19.97;18.27;;;;;;;25.26;48.73;95473.94;6154842;28;103844;-51
2022/06/16 08:52:18;;;;;;;19.93;18.13;;;;;;;25.26;48.82;95471.25;6160061;28;104014;-52
2022/06/16 08:55:29;;;;;;;20.30;18.60;;;;;;;25.26;48.75;95466.69;6160387;28;104560;-52
2022/06/16 08:58:39;;;;;;;19.70;18.00;;;;;;;25.26;49.00;95466.69;6148579;28;103400;-52
2022/06/16 09:01:55;;;;;;;19.67;18.07;;;;;;;25.25;48.58;95465.13;6159953;28;103260;-52
2022/06/16 09:05:05;;;;;;;19.77;18.17;;;;;;;25.25;48.21;95461.66;6164195;28;103999;-52
2022/06/16 09:08:19;;;;;;;19.40;17.83;;;;;;;25.26;48.52;95466.69;6159652;28;103070;-53
2022/06/16 09:11:32;;;;;;;20.50;18.80;;;;;;;25.30;49.03;95461.47;6143994;28;103277;-52
2022/06/16 09:18:45;;;;;;;20.23;18.53;;;;;;;25.21;49.00;95460.72;6141035;28;103517;-53
2022/06/16 09:21:58;;;;;;;19.37;17.80;;;;;;;25.23;48.01;95456.63;6148183;28;104508;-53
2022/06/16 09:25:14;;;;;;;19.97;18.27;;;;;;;25.26;48.00;95452.50;6143185;28;103296;-52
2022/06/16 09:28:21;;;;;;;18.60;17.10;;;;;;;25.27;47.77;95448.72;6139653;28;103133;-52
2022/06/16 09:31:30;;;;;;;19.53;17.83;;;;;;;25.23;48.24;95445.91;6134047;28;103243;-53
2022/06/16 09:34:45;;;;;;;20.50;18.80;;;;;;;25.20;48.64;95441.16;6134146;28;103810;-52
2022/06/16 09:37:56;;;;;;;20.67;18.77;;;;;;;25.22;48.36;95446.22;6139837;28;104596;-51
2022/06/16 09:41:05;;;;;;;20.47;18.77;;;;;;;25.22;49.19;95440.88;6139940;28;104709;-53
2022/06/16 09:44:16;;;;;;;19.37;17.77;;;;;;;25.24;48.46;95436.75;6129396;28;103687;-52
2022/06/16 09:47:31;;;;;;;19.77;18.10;;;;;;;25.23;48.04;95427.16;6147109;28;103011;-53
2022/06/16 09:50:44;;;;;;;19.40;17.90;;;;;;;25.21;47.91;95432.03;6136167;28;104438;-54
2022/06/16 09:53:54;;;;;;;16.80;15.50;;;;;;;25.22;46.93;95433.63;6134620;28;103884;-51
2022/06/16 09:57:04;;;;;;;18.13;16.33;;;;;;;25.24;47.55;95422.56;6133013;28;103463;-49
2022/06/16 10:00:11;;;;;;;17.37;15.97;;;;;;;25.27;47.71;95428.09;6138785;28;103072;-50
2022/06/16 10:03:24;;;;;;;16.80;15.47;;;;;;;25.30;47.46;95426.66;6138196;28;103138;-50
2022/06/16 10:06:41;;;;;;;18.10;16.50;;;;;;;25.30;48.18;95421.31;6128041;28;103094;-49
2022/06/16 10:09:51;;;;;;;16.67;15.37;;;;;;;25.31;48.31;95415.63;6138637;28;103074;-50
2022/06/16 10:13:01;;;;;;;18.13;16.60;;;;;;;25.28;48.28;95420.84;6138680;28;103683;-50
2022/06/16 10:16:12;;;;;;;16.90;15.50;;;;;;;25.23;48.06;95413.75;6137927;28;104099;-50
2022/06/16 10:19:16;;;;;;;17.70;16.33;;;;;;;25.27;47.75;95416.59;6127484;28;103206;-49
2022/06/16 10:22:23;;;;;;;17.00;15.70;;;;;;;25.27;47.59;95413.91;6138712;28;102836;-51
2022/06/16 10:25:33;;;;;;;16.50;15.10;;;;;;;25.25;47.55;95413.44;6139018;28;102799;-49
2022/06/16 10:28:44;;;;;;;17.10;15.80;;;;;;;25.24;47.34;95414.53;6152612;28;104013;-50
2022/06/16 10:31:49;;;;;;;17.70;16.03;;;;;;;25.24;46.92;95407.28;6148646;28;104307;-50
2022/06/16 10:34:53;;;;;;;16.40;15.00;;;;;;;25.24;46.64;95409.19;6135784;28;103873;-49
2022/06/16 10:37:57;;;;;;;16.10;14.80;;;;;;;25.21;46.36;95409.81;6138031;28;105924;-50
2022/06/16 10:41:03;;;;;;;15.73;14.43;;;;;;;25.22;46.86;95406.03;6128030;28;103732;-53
2022/06/16 10:44:16;;;;;;;18.03;16.33;;;;;;;25.18;47.01;95399.72;6138593;28;103097;-55
2022/06/16 10:47:23;;;;;;;16.67;15.37;;;;;;;25.13;46.25;95397.22;6137882;28;103035;-54
2022/06/16 10:50:31;;;;;;;14.60;13.33;;;;;;;25.15;44.85;95390.44;6136503;28;104053;-54
2022/06/16 10:53:40;;;;;;;15.33;14.03;;;;;;;25.11;45.13;95396.75;6132947;28;102824;-55
2022/06/16 10:56:43;;;;;;;14.90;13.90;;;;;;;25.13;45.30;95392.63;6137914;28;103189;-54
2022/06/16 10:59:49;;;;;;;14.80;13.60;;;;;;;25.15;45.47;95395.00;6137781;28;103274;-55
2022/06/16 11:02:58;;;;;;;15.70;14.40;;;;;;;25.11;45.43;95386.81;6128070;28;102746;-55
2022/06/16 11:06:07;;;;;;;14.93;13.83;;;;;;;25.12;44.87;95383.03;6137545;28;103357;-53
2022/06/16 11:09:19;;;;;;;15.50;14.20;;;;;;;25.12;45.17;95380.34;6137846;28;103009;-49
2022/06/16 11:12:24;;;;;;;15.40;14.30;;;;;;;25.14;45.39;95382.72;6137130;28;102735;-49
2022/06/16 11:15:29;;;;;;;15.40;14.10;;;;;;;25.13;45.68;95381.13;6127258;28;104223;-49
2022/06/16 11:18:34;;;;;;;15.03;13.77;;;;;;;25.12;45.51;95388.38;6137215;28;103179;-49
2022/06/16 11:21:44;;;;;;;15.40;14.20;;;;;;;25.11;45.59;95378.78;6137590;28;103972;-49
2022/06/16 11:24:59;;;;;;;15.50;14.30;;;;;;;25.10;45.77;95374.53;6132449;28;104063;-50
2022/06/16 11:28:20;;;;;;;17.07;15.87;;;;;;;25.09;45.70;95376.44;6152466;28;103244;-62
2022/06/16 11:31:26;;;;;;;15.30;14.20;;;;;;;25.09;45.55;95372.97;6161614;28;103398;-50
2022/06/16 11:34:29;;;;;;;15.87;14.47;;;;;;;25.11;45.60;95361.94;6161723;28;103723;-49
2022/06/16 11:37:53;;;;;;;16.17;14.97;;;;;;;25.09;45.71;95365.72;6150062;28;103307;-49
2022/06/16 11:41:02;;;;;;;15.50;14.30;;;;;;;25.07;45.50;95365.25;6161673;28;103007;-49
2022/06/16 11:44:17;;;;;;;15.47;14.27;;;;;;;25.09;45.66;95370.28;6161838;28;103986;-49
2022/06/16 11:47:32;;;;;;;15.03;13.83;;;;;;;25.06;45.99;95369.03;6155966;28;103173;-49
2022/06/16 11:50:44;;;;;;;15.67;14.47;;;;;;;25.06;45.68;95366.34;6156088;28;103888;-50
2022/06/16 11:53:57;;;;;;;13.83;12.93;;;;;;;25.06;45.42;95368.25;6161468;28;104272;-49
2022/06/16 11:57:10;;;;;;;15.17;14.03;;;;;;;25.07;45.38;95364.47;6160612;28;102999;-50
2022/06/16 12:00:19;;;;;;;15.70;14.40;;;;;;;25.07;45.12;95367.13;6150703;28;103100;-49
2022/06/16 12:04:01;;;;;;;16.13;14.90;;;;;;;25.04;45.28;95354.38;6160674;28;102961;-54
2022/06/16 12:07:36;;;;;;;16.73;15.23;;;;;;;25.02;45.05;95360.03;6153800;28;104133;-49
2022/06/16 12:10:45;;;;;;;17.70;16.10;;;;;;;25.01;44.86;95355.00;6123004;28;104064;-49
2022/06/16 12:13:58;;;;;;;17.73;15.97;;;;;;;25.01;44.76;95349.63;6135563;28;103413;-48
2022/06/16 12:17:11;;;;;;;15.70;14.40;;;;;;;25.00;44.91;95345.38;6136263;28;103181;-48
2022/06/16 12:20:21;;;;;;;15.90;14.70;;;;;;;25.00;44.63;95345.38;6136605;28;102981;-49
2022/06/16 12:23:48;;;;;;;15.90;14.70;;;;;;;24.99;44.80;95349.97;6126268;28;103031;-48
2022/06/16 12:26:58;;;;;;;16.30;15.10;;;;;;;24.99;44.39;95347.28;6144979;28;104143;-48
2022/06/16 12:30:09;;;;;;;15.57;14.33;;;;;;;24.99;44.51;95339.25;6160952;28;104172;-49
2022/06/16 12:33:20;;;;;;;14.73;13.63;;;;;;;25.00;44.16;95337.34;6152367;28;103953;-49
2022/06/16 12:36:27;;;;;;;15.70;14.50;;;;;;;25.00;44.25;95337.34;6160143;28;104069;-49
2022/06/16 12:39:36;;;;;;;16.10;14.70;;;;;;;25.00;43.95;95334.69;6158877;28;104061;-49
2022/06/16 12:42:43;;;;;;;15.73;14.53;;;;;;;25.00;44.08;95343.50;6159129;28;103134;-50
2022/06/16 12:45:52;;;;;;;16.97;15.47;;;;;;;25.01;43.85;95337.03;6149440;28;103153;-49
2022/06/16 12:49:00;;;;;;;16.33;15.00;;;;;;;25.01;43.87;95342.38;6160116;28;103381;-49
2022/06/16 12:52:08;;;;;;;15.33;14.23;;;;;;;25.01;43.63;95330.91;6160120;28;103499;-49
2022/06/16 12:55:18;;;;;;;16.30;15.03;;;;;;;25.00;43.53;95329.31;6158615;28;104212;-50
2022/06/16 12:58:25;;;;;;;16.70;15.10;;;;;;;25.01;43.43;95325.53;6154192;28;103274;-48
2022/06/16 13:01:30;;;;;;;15.30;14.20;;;;;;;25.03;43.50;95326.81;6159796;28;103199;-49
2022/06/16 13:04:35;;;;;;;15.37;14.17;;;;;;;25.02;43.64;95325.22;6160401;28;104463;-48
2022/06/16 13:07:42;;;;;;;15.93;14.73;;;;;;;25.02;43.88;95330.56;6150033;28;104111;-48
2022/06/16 13:10:51;;;;;;;16.13;15.00;;;;;;;25.04;43.57;95330.28;6159482;28;103091;-48
2022/06/16 13:14:02;;;;;;;16.77;15.40;;;;;;;25.03;43.58;95328.69;6159291;28;104487;-49
2022/06/16 13:17:10;;;;;;;15.90;14.80;;;;;;;25.04;43.26;95331.06;6159393;28;103014;-48
2022/06/16 13:20:17;;;;;;;17.17;15.77;;;;;;;25.03;43.51;95324.16;6149295;28;104077;-48
2022/06/16 13:23:31;;;;;;;16.40;15.20;;;;;;;25.03;43.41;95323.31;6159369;28;103639;-48
2022/06/16 13:26:41;;;;;;;16.40;15.20;;;;;;;25.03;43.30;95318.78;6159990;28;103386;-50
2022/06/16 13:30:02;;;;;;;16.07;14.87;;;;;;;25.01;43.50;95318.28;6154296;28;103213;-48
2022/06/16 13:33:32;;;;;;;16.10;15.00;;;;;;;25.03;43.32;95316.09;6158520;28;103461;-48
2022/06/16 13:36:50;;;;;;;16.27;15.13;;;;;;;25.03;42.98;95316.09;6160232;28;103103;-48
2022/06/16 13:40:15;;;;;;;16.60;15.33;;;;;;;25.03;43.11;95316.09;6158346;28;103050;-48
2022/06/16 13:43:19;;;;;;;15.60;14.50;;;;;;;25.03;43.50;95320.66;6147945;28;103129;-48
2022/06/16 13:46:22;;;;;;;18.03;16.50;;;;;;;25.02;43.25;95311.84;6157740;28;103203;-49
2022/06/16 13:49:29;;;;;;;18.23;16.90;;;;;;;25.02;43.34;95314.50;6160622;28;103061;-49
2022/06/16 13:52:37;;;;;;;17.70;16.40;;;;;;;25.01;43.84;95320.97;6157978;28;104259;-50
2022/06/16 13:55:45;;;;;;;18.47;17.17;;;;;;;25.02;43.59;95317.19;6160029;28;103902;-49
2022/06/16 13:59:11;;;;;;;18.70;17.37;;;;;;;25.01;43.88;95315.63;6163206;28;103270;-49
2022/06/16 14:02:16;;;;;;;17.80;16.40;;;;;;;25.01;43.43;95302.22;6162935;28;103248;-50
2022/06/16 14:05:28;;;;;;;17.40;16.10;;;;;;;25.02;43.69;95309.16;6152117;28;104122;-50
2022/06/16 14:08:31;;;;;;;18.87;17.47;;;;;;;25.00;43.91;95303.34;6162819;28;103042;-49
2022/06/16 14:11:36;;;;;;;19.77;18.27;;;;;;;25.01;43.78;95299.53;6162936;28;102874;-49
2022/06/16 14:15:10;;;;;;;20.53;18.93;;;;;;;25.01;44.36;95306.78;6161141;28;103070;-50
2022/06/16 14:18:21;;;;;;;20.27;18.77;;;;;;;25.02;44.24;95300.34;6157018;28;106036;-50
2022/06/16 14:21:36;;;;;;;20.73;19.23;;;;;;;25.01;44.38;95296.88;6162702;28;103089;-49
2022/06/16 14:24:56;;;;;;;21.90;20.10;;;;;;;25.02;44.57;95284.28;6162038;28;102819;-50
2022/06/16 14:28:03;;;;;;;20.57;19.00;;;;;;;25.01;44.63;95290.72;6152687;28;104643;-50
2022/06/16 14:31:10;;;;;;;20.53;18.97;;;;;;;25.01;44.62;95288.84;6162180;28;103206;-50
2022/06/16 14:34:18;;;;;;;20.20;18.77;;;;;;;25.00;44.47;95287.28;6162528;28;103969;-49
2022/06/16 14:37:28;;;;;;;19.77;18.37;;;;;;;25.01;44.53;95282.69;6161624;28;104112;-50
2022/06/16 14:40:36;;;;;;;19.37;17.87;;;;;;;25.01;43.93;95274.66;6156926;28;104057;-48
2022/06/16 14:43:49;;;;;;;19.90;18.30;;;;;;;25.01;44.36;95264.75;6162200;28;103270;-48